sensor_id;sensor_type;location;lat;lon;timestamp;P1;durP1;ratioP1;P2;durP2;ratioP2
7471;SDS011;3777;48.722;8.110;2023-08-01T00:02:09;5.93;;;4.73;;
7471;SDS011;3777;48.722;8.110;2023-08-01T00:04:37;7.47;;;5.07;;
7471;SDS011;3777;48.722;8.110;2023-08-01T00:07:04;6.27;;;4.70;;
7471;SDS011;3777;48.722;8.110;2023-08-01T00:09:31;6.50;;;4.70;;
7471;SDS011;3777;48.722;8.110;2023-08-01T00:11:59;5.73;;;4.80;;
7471;SDS011;3777;48.722;8.110;2023-08-01T00:14:26;5.47;;;4.67;;
7471;SDS011;3777;48.722;8.110;2023-08-01T00:16:53;5.73;;;4.73;;
7471;SDS011;3777;48.722;8.110;2023-08-01T00:19:20;5.93;;;4.53;;
7471;SDS011;3777;48.722;8.110;2023-08-01T00:21:47;6.53;;;4.53;;
7471;SDS011;3777;48.722;8.110;2023-08-01T00:24:14;7.50;;;5.10;;
7471;SDS011;3777;48.722;8.110;2023-08-01T00:26:41;8.70;;;5.20;;
7471;SDS011;3777;48.722;8.110;2023-08-01T00:29:09;6.50;;;4.83;;
7471;SDS011;3777;48.722;8.110;2023-08-01T00:31:36;7.37;;;4.80;;
7471;SDS011;3777;48.722;8.110;2023-08-01T00:34:09;7.60;;;4.43;;
7471;SDS011;3777;48.722;8.110;2023-08-01T00:36:36;7.70;;;4.70;;
7471;SDS011;3777;48.722;8.110;2023-08-01T00:39:03;10.47;;;5.00;;
7471;SDS011;3777;48.722;8.110;2023-08-01T00:41:30;8.97;;;5.23;;
7471;SDS011;3777;48.722;8.110;2023-08-01T00:43:57;9.43;;;4.67;;
7471;SDS011;3777;48.722;8.110;2023-08-01T00:46:25;9.00;;;4.83;;
7471;SDS011;3777;48.722;8.110;2023-08-01T00:48:52;5.80;;;4.73;;
7471;SDS011;3777;48.722;8.110;2023-08-01T00:51:23;8.87;;;5.27;;
7471;SDS011;3777;48.722;8.110;2023-08-01T00:53:50;6.73;;;5.20;;
7471;SDS011;3777;48.722;8.110;2023-08-01T00:56:17;8.20;;;5.10;;
7471;SDS011;3777;48.722;8.110;2023-08-01T00:58:45;7.83;;;5.13;;
7471;SDS011;3777;48.722;8.110;2023-08-01T01:01:12;7.63;;;4.97;;
7471;SDS011;3777;48.722;8.110;2023-08-01T01:03:40;8.23;;;5.47;;
7471;SDS011;3777;48.722;8.110;2023-08-01T01:06:09;7.10;;;4.67;;
7471;SDS011;3777;48.722;8.110;2023-08-01T01:08:42;12.00;;;5.47;;
7471;SDS011;3777;48.722;8.110;2023-08-01T01:11:09;8.33;;;5.33;;
7471;SDS011;3777;48.722;8.110;2023-08-01T01:13:36;7.90;;;5.37;;
7471;SDS011;3777;48.722;8.110;2023-08-01T01:16:03;10.27;;;5.50;;
7471;SDS011;3777;48.722;8.110;2023-08-01T01:18:30;7.27;;;5.00;;
7471;SDS011;3777;48.722;8.110;2023-08-01T01:20:58;7.50;;;5.00;;
7471;SDS011;3777;48.722;8.110;2023-08-01T01:23:25;9.70;;;5.60;;
7471;SDS011;3777;48.722;8.110;2023-08-01T01:25:53;7.30;;;5.50;;
7471;SDS011;3777;48.722;8.110;2023-08-01T01:28:22;8.93;;;6.10;;
7471;SDS011;3777;48.722;8.110;2023-08-01T01:30:50;8.07;;;6.00;;
7471;SDS011;3777;48.722;8.110;2023-08-01T01:33:18;11.00;;;6.30;;
7471;SDS011;3777;48.722;8.110;2023-08-01T01:35:46;8.73;;;5.67;;
7471;SDS011;3777;48.722;8.110;2023-08-01T01:38:16;8.60;;;5.60;;
7471;SDS011;3777;48.722;8.110;2023-08-01T01:40:43;7.60;;;5.60;;
7471;SDS011;3777;48.722;8.110;2023-08-01T01:43:10;7.33;;;5.23;;
7471;SDS011;3777;48.722;8.110;2023-08-01T01:45:37;7.33;;;4.93;;
7471;SDS011;3777;48.722;8.110;2023-08-01T01:48:04;9.83;;;5.80;;
7471;SDS011;3777;48.722;8.110;2023-08-01T01:50:31;7.63;;;5.23;;
7471;SDS011;3777;48.722;8.110;2023-08-01T01:52:58;7.77;;;5.67;;
7471;SDS011;3777;48.722;8.110;2023-08-01T01:55:26;9.20;;;5.87;;
7471;SDS011;3777;48.722;8.110;2023-08-01T01:57:53;6.90;;;5.40;;
7471;SDS011;3777;48.722;8.110;2023-08-01T02:00:20;7.37;;;5.87;;
7471;SDS011;3777;48.722;8.110;2023-08-01T02:02:47;6.13;;;5.30;;
7471;SDS011;3777;48.722;8.110;2023-08-01T02:05:14;7.07;;;5.13;;
7471;SDS011;3777;48.722;8.110;2023-08-01T02:07:41;6.90;;;5.37;;
7471;SDS011;3777;48.722;8.110;2023-08-01T02:10:08;8.23;;;5.67;;
7471;SDS011;3777;48.722;8.110;2023-08-01T02:12:37;8.47;;;5.73;;
7471;SDS011;3777;48.722;8.110;2023-08-01T02:15:04;10.33;;;5.93;;
7471;SDS011;3777;48.722;8.110;2023-08-01T02:17:32;8.57;;;5.60;;
7471;SDS011;3777;48.722;8.110;2023-08-01T02:19:59;9.47;;;6.07;;
7471;SDS011;3777;48.722;8.110;2023-08-01T02:22:26;8.80;;;6.30;;
7471;SDS011;3777;48.722;8.110;2023-08-01T02:24:53;8.30;;;5.77;;
7471;SDS011;3777;48.722;8.110;2023-08-01T02:27:20;9.00;;;5.87;;
7471;SDS011;3777;48.722;8.110;2023-08-01T02:29:48;6.80;;;5.70;;
7471;SDS011;3777;48.722;8.110;2023-08-01T02:32:16;7.70;;;5.20;;
7471;SDS011;3777;48.722;8.110;2023-08-01T02:34:43;7.27;;;5.40;;
7471;SDS011;3777;48.722;8.110;2023-08-01T02:37:10;5.97;;;4.97;;
7471;SDS011;3777;48.722;8.110;2023-08-01T02:39:37;6.90;;;4.70;;
7471;SDS011;3777;48.722;8.110;2023-08-01T02:42:04;8.43;;;5.07;;
7471;SDS011;3777;48.722;8.110;2023-08-01T02:44:31;6.83;;;4.97;;
7471;SDS011;3777;48.722;8.110;2023-08-01T02:46:59;7.13;;;4.83;;
7471;SDS011;3777;48.722;8.110;2023-08-01T02:49:26;7.03;;;4.90;;
7471;SDS011;3777;48.722;8.110;2023-08-01T02:51:53;6.57;;;4.40;;
7471;SDS011;3777;48.722;8.110;2023-08-01T02:54:20;5.27;;;4.47;;
7471;SDS011;3777;48.722;8.110;2023-08-01T02:56:47;10.57;;;4.87;;
7471;SDS011;3777;48.722;8.110;2023-08-01T02:59:14;8.67;;;4.73;;
7471;SDS011;3777;48.722;8.110;2023-08-01T03:01:41;7.97;;;4.43;;
7471;SDS011;3777;48.722;8.110;2023-08-01T03:04:09;6.33;;;4.70;;
7471;SDS011;3777;48.722;8.110;2023-08-01T03:06:37;6.67;;;4.57;;
7471;SDS011;3777;48.722;8.110;2023-08-01T03:09:04;6.10;;;4.70;;
7471;SDS011;3777;48.722;8.110;2023-08-01T03:11:33;6.83;;;4.70;;
7471;SDS011;3777;48.722;8.110;2023-08-01T03:14:01;6.33;;;4.70;;
7471;SDS011;3777;48.722;8.110;2023-08-01T03:16:29;9.83;;;4.77;;
7471;SDS011;3777;48.722;8.110;2023-08-01T03:18:57;6.77;;;4.70;;
7471;SDS011;3777;48.722;8.110;2023-08-01T03:21:27;9.47;;;4.90;;
7471;SDS011;3777;48.722;8.110;2023-08-01T03:23:53;7.90;;;4.23;;
7471;SDS011;3777;48.722;8.110;2023-08-01T03:26:20;9.67;;;4.73;;
7471;SDS011;3777;48.722;8.110;2023-08-01T03:28:47;6.17;;;4.50;;
7471;SDS011;3777;48.722;8.110;2023-08-01T03:31:14;7.27;;;4.50;;
7471;SDS011;3777;48.722;8.110;2023-08-01T03:33:41;6.03;;;4.93;;
7471;SDS011;3777;48.722;8.110;2023-08-01T03:36:08;7.87;;;4.90;;
7471;SDS011;3777;48.722;8.110;2023-08-01T03:38:36;7.63;;;4.97;;
7471;SDS011;3777;48.722;8.110;2023-08-01T03:41:03;8.10;;;5.20;;
7471;SDS011;3777;48.722;8.110;2023-08-01T03:43:30;5.77;;;4.33;;
7471;SDS011;3777;48.722;8.110;2023-08-01T03:45:57;7.60;;;4.90;;
7471;SDS011;3777;48.722;8.110;2023-08-01T03:48:24;8.17;;;4.70;;
7471;SDS011;3777;48.722;8.110;2023-08-01T03:50:51;7.07;;;4.67;;
7471;SDS011;3777;48.722;8.110;2023-08-01T03:53:19;8.43;;;4.97;;
7471;SDS011;3777;48.722;8.110;2023-08-01T03:55:47;6.77;;;4.70;;
7471;SDS011;3777;48.722;8.110;2023-08-01T03:58:14;6.60;;;4.67;;
7471;SDS011;3777;48.722;8.110;2023-08-01T04:00:41;5.67;;;4.43;;
7471;SDS011;3777;48.722;8.110;2023-08-01T04:03:08;8.50;;;4.73;;
7471;SDS011;3777;48.722;8.110;2023-08-01T04:05:35;8.03;;;4.80;;
7471;SDS011;3777;48.722;8.110;2023-08-01T04:08:02;9.20;;;4.93;;
7471;SDS011;3777;48.722;8.110;2023-08-01T04:10:29;6.67;;;4.87;;
7471;SDS011;3777;48.722;8.110;2023-08-01T04:12:58;7.17;;;4.73;;
7471;SDS011;3777;48.722;8.110;2023-08-01T04:15:25;8.70;;;4.93;;
7471;SDS011;3777;48.722;8.110;2023-08-01T04:17:51;10.20;;;5.30;;
7471;SDS011;3777;48.722;8.110;2023-08-01T04:20:18;10.17;;;5.20;;
7471;SDS011;3777;48.722;8.110;2023-08-01T04:22:45;6.93;;;5.23;;
7471;SDS011;3777;48.722;8.110;2023-08-01T04:25:12;8.73;;;5.03;;
7471;SDS011;3777;48.722;8.110;2023-08-01T04:27:39;7.13;;;5.00;;
7471;SDS011;3777;48.722;8.110;2023-08-01T04:30:08;6.70;;;4.73;;
7471;SDS011;3777;48.722;8.110;2023-08-01T04:32:36;7.13;;;4.50;;
7471;SDS011;3777;48.722;8.110;2023-08-01T04:35:03;8.43;;;4.60;;
7471;SDS011;3777;48.722;8.110;2023-08-01T04:37:31;7.53;;;4.90;;
7471;SDS011;3777;48.722;8.110;2023-08-01T04:39:58;6.50;;;4.53;;
7471;SDS011;3777;48.722;8.110;2023-08-01T04:42:25;7.20;;;4.83;;
7471;SDS011;3777;48.722;8.110;2023-08-01T04:44:52;6.67;;;4.40;;
7471;SDS011;3777;48.722;8.110;2023-08-01T04:47:20;6.67;;;4.87;;
7471;SDS011;3777;48.722;8.110;2023-08-01T04:49:47;7.37;;;4.50;;
7471;SDS011;3777;48.722;8.110;2023-08-01T04:52:14;7.50;;;4.80;;
7471;SDS011;3777;48.722;8.110;2023-08-01T04:54:41;8.93;;;4.90;;
7471;SDS011;3777;48.722;8.110;2023-08-01T04:57:08;7.20;;;4.80;;
7471;SDS011;3777;48.722;8.110;2023-08-01T04:59:35;7.77;;;4.93;;
7471;SDS011;3777;48.722;8.110;2023-08-01T05:02:02;9.80;;;5.20;;
7471;SDS011;3777;48.722;8.110;2023-08-01T05:04:30;9.30;;;5.30;;
7471;SDS011;3777;48.722;8.110;2023-08-01T05:06:57;7.63;;;5.00;;
7471;SDS011;3777;48.722;8.110;2023-08-01T05:09:24;8.10;;;4.83;;
7471;SDS011;3777;48.722;8.110;2023-08-01T05:11:51;9.23;;;5.30;;
7471;SDS011;3777;48.722;8.110;2023-08-01T05:14:18;7.53;;;4.40;;
7471;SDS011;3777;48.722;8.110;2023-08-01T05:16:45;9.50;;;5.10;;
7471;SDS011;3777;48.722;8.110;2023-08-01T05:19:12;9.03;;;5.17;;
7471;SDS011;3777;48.722;8.110;2023-08-01T05:21:40;6.63;;;4.43;;
7471;SDS011;3777;48.722;8.110;2023-08-01T05:24:07;8.77;;;5.07;;
7471;SDS011;3777;48.722;8.110;2023-08-01T05:26:35;9.73;;;5.23;;
7471;SDS011;3777;48.722;8.110;2023-08-01T05:29:02;6.23;;;4.40;;
7471;SDS011;3777;48.722;8.110;2023-08-01T05:31:29;8.73;;;4.87;;
7471;SDS011;3777;48.722;8.110;2023-08-01T05:33:56;7.37;;;4.83;;
7471;SDS011;3777;48.722;8.110;2023-08-01T05:36:23;7.50;;;5.30;;
7471;SDS011;3777;48.722;8.110;2023-08-01T05:38:51;13.60;;;5.70;;
7471;SDS011;3777;48.722;8.110;2023-08-01T05:41:18;7.77;;;5.77;;
7471;SDS011;3777;48.722;8.110;2023-08-01T05:43:46;12.57;;;5.40;;
7471;SDS011;3777;48.722;8.110;2023-08-01T05:46:14;11.07;;;5.20;;
7471;SDS011;3777;48.722;8.110;2023-08-01T05:48:41;8.87;;;5.33;;
7471;SDS011;3777;48.722;8.110;2023-08-01T05:51:08;7.17;;;5.13;;
7471;SDS011;3777;48.722;8.110;2023-08-01T05:53:35;8.27;;;6.00;;
7471;SDS011;3777;48.722;8.110;2023-08-01T05:56:03;8.43;;;5.17;;
7471;SDS011;3777;48.722;8.110;2023-08-01T05:58:30;11.90;;;5.70;;
7471;SDS011;3777;48.722;8.110;2023-08-01T06:00:57;7.80;;;5.80;;
7471;SDS011;3777;48.722;8.110;2023-08-01T06:03:24;10.60;;;5.70;;
7471;SDS011;3777;48.722;8.110;2023-08-01T06:05:51;8.40;;;5.77;;
7471;SDS011;3777;48.722;8.110;2023-08-01T06:08:18;7.37;;;5.17;;
7471;SDS011;3777;48.722;8.110;2023-08-01T06:10:46;7.90;;;5.67;;
7471;SDS011;3777;48.722;8.110;2023-08-01T06:13:15;11.03;;;6.23;;
7471;SDS011;3777;48.722;8.110;2023-08-01T06:15:42;7.83;;;5.70;;
7471;SDS011;3777;48.722;8.110;2023-08-01T06:18:09;8.80;;;5.80;;
7471;SDS011;3777;48.722;8.110;2023-08-01T06:20:39;10.37;;;5.97;;
7471;SDS011;3777;48.722;8.110;2023-08-01T06:23:06;8.63;;;6.00;;
7471;SDS011;3777;48.722;8.110;2023-08-01T06:25:33;8.87;;;5.50;;
7471;SDS011;3777;48.722;8.110;2023-08-01T06:28:00;9.30;;;5.50;;
7471;SDS011;3777;48.722;8.110;2023-08-01T06:30:28;8.17;;;5.30;;
7471;SDS011;3777;48.722;8.110;2023-08-01T06:32:56;10.13;;;5.67;;
7471;SDS011;3777;48.722;8.110;2023-08-01T06:35:23;8.83;;;5.30;;
7471;SDS011;3777;48.722;8.110;2023-08-01T06:37:50;7.93;;;5.60;;
7471;SDS011;3777;48.722;8.110;2023-08-01T06:40:17;9.17;;;5.87;;
7471;SDS011;3777;48.722;8.110;2023-08-01T06:42:44;9.77;;;6.07;;
7471;SDS011;3777;48.722;8.110;2023-08-01T06:45:10;10.27;;;5.80;;
7471;SDS011;3777;48.722;8.110;2023-08-01T06:47:39;12.30;;;6.47;;
7471;SDS011;3777;48.722;8.110;2023-08-01T06:50:06;9.63;;;6.20;;
7471;SDS011;3777;48.722;8.110;2023-08-01T06:52:33;9.87;;;6.47;;
7471;SDS011;3777;48.722;8.110;2023-08-01T06:55:00;10.27;;;6.13;;
7471;SDS011;3777;48.722;8.110;2023-08-01T06:57:28;11.50;;;6.37;;
7471;SDS011;3777;48.722;8.110;2023-08-01T06:59:55;11.50;;;6.47;;
7471;SDS011;3777;48.722;8.110;2023-08-01T07:02:22;10.00;;;6.50;;
7471;SDS011;3777;48.722;8.110;2023-08-01T07:04:51;9.93;;;6.37;;
7471;SDS011;3777;48.722;8.110;2023-08-01T07:07:19;11.43;;;6.30;;
7471;SDS011;3777;48.722;8.110;2023-08-01T07:09:45;8.00;;;6.20;;
7471;SDS011;3777;48.722;8.110;2023-08-01T07:12:12;10.57;;;6.03;;
7471;SDS011;3777;48.722;8.110;2023-08-01T07:14:39;7.97;;;5.70;;
7471;SDS011;3777;48.722;8.110;2023-08-01T07:17:06;8.67;;;6.00;;
7471;SDS011;3777;48.722;8.110;2023-08-01T07:19:33;9.17;;;6.40;;
7471;SDS011;3777;48.722;8.110;2023-08-01T07:22:02;7.93;;;5.73;;
7471;SDS011;3777;48.722;8.110;2023-08-01T07:24:29;7.70;;;5.70;;
7471;SDS011;3777;48.722;8.110;2023-08-01T07:26:56;9.70;;;5.80;;
7471;SDS011;3777;48.722;8.110;2023-08-01T07:29:23;8.40;;;6.20;;
7471;SDS011;3777;48.722;8.110;2023-08-01T07:31:50;8.33;;;5.43;;
7471;SDS011;3777;48.722;8.110;2023-08-01T07:34:17;9.03;;;5.90;;
7471;SDS011;3777;48.722;8.110;2023-08-01T07:36:45;9.93;;;6.23;;
7471;SDS011;3777;48.722;8.110;2023-08-01T07:39:15;9.07;;;5.80;;
7471;SDS011;3777;48.722;8.110;2023-08-01T07:41:42;9.00;;;5.83;;
7471;SDS011;3777;48.722;8.110;2023-08-01T07:44:09;7.73;;;5.70;;
7471;SDS011;3777;48.722;8.110;2023-08-01T07:46:36;7.43;;;5.73;;
7471;SDS011;3777;48.722;8.110;2023-08-01T07:49:03;7.93;;;5.80;;
7471;SDS011;3777;48.722;8.110;2023-08-01T07:51:30;9.63;;;6.07;;
7471;SDS011;3777;48.722;8.110;2023-08-01T07:53:58;8.37;;;5.93;;
7471;SDS011;3777;48.722;8.110;2023-08-01T07:56:27;7.87;;;5.80;;
7471;SDS011;3777;48.722;8.110;2023-08-01T07:58:54;8.23;;;5.70;;
7471;SDS011;3777;48.722;8.110;2023-08-01T08:01:21;8.63;;;6.00;;
7471;SDS011;3777;48.722;8.110;2023-08-01T08:03:48;8.27;;;5.97;;
7471;SDS011;3777;48.722;8.110;2023-08-01T08:06:15;8.30;;;5.70;;
7471;SDS011;3777;48.722;8.110;2023-08-01T08:08:42;11.03;;;5.77;;
7471;SDS011;3777;48.722;8.110;2023-08-01T08:11:09;7.07;;;5.13;;
7471;SDS011;3777;48.722;8.110;2023-08-01T08:13:37;9.67;;;6.00;;
7471;SDS011;3777;48.722;8.110;2023-08-01T08:16:05;13.43;;;6.10;;
7471;SDS011;3777;48.722;8.110;2023-08-01T08:18:32;7.93;;;5.77;;
7471;SDS011;3777;48.722;8.110;2023-08-01T08:20:59;11.20;;;5.87;;
7471;SDS011;3777;48.722;8.110;2023-08-01T08:23:26;7.47;;;5.50;;
7471;SDS011;3777;48.722;8.110;2023-08-01T08:25:53;7.17;;;5.20;;
7471;SDS011;3777;48.722;8.110;2023-08-01T08:28:27;6.67;;;5.10;;
7471;SDS011;3777;48.722;8.110;2023-08-01T08:30:56;7.10;;;5.00;;
7471;SDS011;3777;48.722;8.110;2023-08-01T08:33:23;7.20;;;4.97;;
7471;SDS011;3777;48.722;8.110;2023-08-01T08:35:50;6.40;;;4.43;;
7471;SDS011;3777;48.722;8.110;2023-08-01T08:38:17;8.23;;;4.90;;
7471;SDS011;3777;48.722;8.110;2023-08-01T08:40:48;6.73;;;4.80;;
7471;SDS011;3777;48.722;8.110;2023-08-01T08:43:21;6.83;;;4.63;;
7471;SDS011;3777;48.722;8.110;2023-08-01T08:45:50;7.40;;;5.37;;
7471;SDS011;3777;48.722;8.110;2023-08-01T08:48:20;6.23;;;4.60;;
7471;SDS011;3777;48.722;8.110;2023-08-01T08:50:48;5.13;;;4.50;;
7471;SDS011;3777;48.722;8.110;2023-08-01T08:53:16;5.90;;;4.97;;
7471;SDS011;3777;48.722;8.110;2023-08-01T08:55:45;7.37;;;4.70;;
7471;SDS011;3777;48.722;8.110;2023-08-01T08:58:12;6.93;;;4.67;;
7471;SDS011;3777;48.722;8.110;2023-08-01T09:00:39;5.93;;;4.50;;
7471;SDS011;3777;48.722;8.110;2023-08-01T09:03:06;7.70;;;5.30;;
7471;SDS011;3777;48.722;8.110;2023-08-01T09:05:37;5.67;;;3.90;;
7471;SDS011;3777;48.722;8.110;2023-08-01T09:08:13;4.63;;;3.10;;
7471;SDS011;3777;48.722;8.110;2023-08-01T09:10:44;3.87;;;2.40;;
7471;SDS011;3777;48.722;8.110;2023-08-01T09:13:11;3.00;;;2.20;;
7471;SDS011;3777;48.722;8.110;2023-08-01T09:15:38;4.03;;;2.00;;
7471;SDS011;3777;48.722;8.110;2023-08-01T09:18:07;2.40;;;1.80;;
7471;SDS011;3777;48.722;8.110;2023-08-01T09:20:41;3.03;;;2.00;;
7471;SDS011;3777;48.722;8.110;2023-08-01T09:23:09;3.80;;;1.60;;
7471;SDS011;3777;48.722;8.110;2023-08-01T09:25:36;2.60;;;1.63;;
7471;SDS011;3777;48.722;8.110;2023-08-01T09:28:14;2.53;;;1.67;;
7471;SDS011;3777;48.722;8.110;2023-08-01T09:30:45;2.90;;;1.80;;
7471;SDS011;3777;48.722;8.110;2023-08-01T09:33:15;4.57;;;1.90;;
7471;SDS011;3777;48.722;8.110;2023-08-01T09:35:44;2.73;;;1.77;;
7471;SDS011;3777;48.722;8.110;2023-08-01T09:38:11;2.77;;;1.70;;
7471;SDS011;3777;48.722;8.110;2023-08-01T09:40:40;3.23;;;1.87;;
7471;SDS011;3777;48.722;8.110;2023-08-01T09:43:09;3.93;;;1.63;;
7471;SDS011;3777;48.722;8.110;2023-08-01T09:45:37;1.73;;;1.55;;
7471;SDS011;3777;48.722;8.110;2023-08-01T09:48:04;2.65;;;1.38;;
7471;SDS011;3777;48.722;8.110;2023-08-01T09:50:32;1.60;;;1.23;;
7471;SDS011;3777;48.722;8.110;2023-08-01T09:53:10;1.48;;;1.30;;
7471;SDS011;3777;48.722;8.110;2023-08-01T09:55:37;3.00;;;1.30;;
7471;SDS011;3777;48.722;8.110;2023-08-01T09:58:09;2.08;;;1.20;;
7471;SDS011;3777;48.722;8.110;2023-08-01T10:00:38;1.33;;;1.15;;
7471;SDS011;3777;48.722;8.110;2023-08-01T10:03:05;1.30;;;1.10;;
7471;SDS011;3777;48.722;8.110;2023-08-01T10:05:34;1.27;;;1.13;;
7471;SDS011;3777;48.722;8.110;2023-08-01T10:08:02;2.28;;;1.30;;
7471;SDS011;3777;48.722;8.110;2023-08-01T10:10:31;1.45;;;1.10;;
7471;SDS011;3777;48.722;8.110;2023-08-01T10:12:59;1.25;;;0.98;;
7471;SDS011;3777;48.722;8.110;2023-08-01T10:15:28;2.70;;;1.30;;
7471;SDS011;3777;48.722;8.110;2023-08-01T10:17:56;1.40;;;1.23;;
7471;SDS011;3777;48.722;8.110;2023-08-01T10:20:23;1.63;;;1.13;;
7471;SDS011;3777;48.722;8.110;2023-08-01T10:22:51;1.65;;;1.30;;
7471;SDS011;3777;48.722;8.110;2023-08-01T10:25:19;2.38;;;1.20;;
7471;SDS011;3777;48.722;8.110;2023-08-01T10:27:58;1.88;;;1.35;;
7471;SDS011;3777;48.722;8.110;2023-08-01T10:30:26;1.40;;;1.30;;
7471;SDS011;3777;48.722;8.110;2023-08-01T10:32:54;1.83;;;1.40;;
7471;SDS011;3777;48.722;8.110;2023-08-01T10:35:31;1.73;;;1.20;;
7471;SDS011;3777;48.722;8.110;2023-08-01T10:38:05;1.50;;;1.30;;
7471;SDS011;3777;48.722;8.110;2023-08-01T10:40:34;2.78;;;1.40;;
7471;SDS011;3777;48.722;8.110;2023-08-01T10:43:04;2.63;;;1.38;;
7471;SDS011;3777;48.722;8.110;2023-08-01T10:45:31;2.38;;;1.17;;
7471;SDS011;3777;48.722;8.110;2023-08-01T10:48:08;1.55;;;1.40;;
7471;SDS011;3777;48.722;8.110;2023-08-01T10:50:35;1.65;;;1.30;;
7471;SDS011;3777;48.722;8.110;2023-08-01T10:53:04;2.05;;;1.30;;
7471;SDS011;3777;48.722;8.110;2023-08-01T10:55:40;2.08;;;1.50;;
7471;SDS011;3777;48.722;8.110;2023-08-01T10:58:09;2.55;;;1.55;;
7471;SDS011;3777;48.722;8.110;2023-08-01T11:00:36;1.73;;;1.50;;
7471;SDS011;3777;48.722;8.110;2023-08-01T11:03:03;1.92;;;1.50;;
7471;SDS011;3777;48.722;8.110;2023-08-01T11:05:30;2.38;;;1.75;;
7471;SDS011;3777;48.722;8.110;2023-08-01T11:07:58;2.50;;;1.50;;
7471;SDS011;3777;48.722;8.110;2023-08-01T11:10:25;1.70;;;1.50;;
7471;SDS011;3777;48.722;8.110;2023-08-01T11:12:53;3.17;;;1.48;;
7471;SDS011;3777;48.722;8.110;2023-08-01T11:15:21;2.40;;;1.65;;
7471;SDS011;3777;48.722;8.110;2023-08-01T11:17:49;4.85;;;1.75;;
7471;SDS011;3777;48.722;8.110;2023-08-01T11:20:17;2.10;;;1.50;;
7471;SDS011;3777;48.722;8.110;2023-08-01T11:22:49;3.13;;;1.70;;
7471;SDS011;3777;48.722;8.110;2023-08-01T11:25:17;3.22;;;1.90;;
7471;SDS011;3777;48.722;8.110;2023-08-01T11:27:44;2.97;;;1.70;;
7471;SDS011;3777;48.722;8.110;2023-08-01T11:30:12;3.10;;;1.73;;
7471;SDS011;3777;48.722;8.110;2023-08-01T11:32:40;2.55;;;1.73;;
7471;SDS011;3777;48.722;8.110;2023-08-01T11:35:07;1.92;;;1.60;;
7471;SDS011;3777;48.722;8.110;2023-08-01T11:37:34;1.58;;;1.48;;
7471;SDS011;3777;48.722;8.110;2023-08-01T11:40:02;3.10;;;1.73;;
7471;SDS011;3777;48.722;8.110;2023-08-01T11:42:30;3.95;;;2.10;;
7471;SDS011;3777;48.722;8.110;2023-08-01T11:45:08;2.53;;;1.88;;
7471;SDS011;3777;48.722;8.110;2023-08-01T11:47:35;2.65;;;1.75;;
7471;SDS011;3777;48.722;8.110;2023-08-01T11:50:06;3.08;;;1.92;;
7471;SDS011;3777;48.722;8.110;2023-08-01T11:52:34;3.00;;;1.77;;
7471;SDS011;3777;48.722;8.110;2023-08-01T11:55:01;2.78;;;1.50;;
7471;SDS011;3777;48.722;8.110;2023-08-01T11:57:28;4.55;;;1.80;;
7471;SDS011;3777;48.722;8.110;2023-08-01T11:59:55;2.75;;;1.67;;
7471;SDS011;3777;48.722;8.110;2023-08-01T12:02:23;2.25;;;1.60;;
7471;SDS011;3777;48.722;8.110;2023-08-01T12:04:50;2.90;;;1.85;;
7471;SDS011;3777;48.722;8.110;2023-08-01T12:07:19;4.55;;;1.60;;
7471;SDS011;3777;48.722;8.110;2023-08-01T12:09:54;2.30;;;1.80;;
7471;SDS011;3777;48.722;8.110;2023-08-01T12:12:22;2.95;;;1.70;;
7471;SDS011;3777;48.722;8.110;2023-08-01T12:14:49;2.03;;;1.70;;
7471;SDS011;3777;48.722;8.110;2023-08-01T12:17:17;1.75;;;1.50;;
7471;SDS011;3777;48.722;8.110;2023-08-01T12:19:44;1.80;;;1.70;;
7471;SDS011;3777;48.722;8.110;2023-08-01T12:22:11;2.03;;;1.50;;
7471;SDS011;3777;48.722;8.110;2023-08-01T12:24:39;2.15;;;1.73;;
7471;SDS011;3777;48.722;8.110;2023-08-01T12:27:07;1.88;;;1.67;;
7471;SDS011;3777;48.722;8.110;2023-08-01T12:29:34;2.85;;;1.80;;
7471;SDS011;3777;48.722;8.110;2023-08-01T12:32:01;3.70;;;1.77;;
7471;SDS011;3777;48.722;8.110;2023-08-01T12:34:29;3.58;;;1.85;;
7471;SDS011;3777;48.722;8.110;2023-08-01T12:36:56;3.05;;;1.70;;
7471;SDS011;3777;48.722;8.110;2023-08-01T12:39:23;3.83;;;1.90;;
7471;SDS011;3777;48.722;8.110;2023-08-01T12:41:52;1.88;;;1.52;;
7471;SDS011;3777;48.722;8.110;2023-08-01T12:44:19;2.22;;;1.55;;
7471;SDS011;3777;48.722;8.110;2023-08-01T12:46:46;1.75;;;1.58;;
7471;SDS011;3777;48.722;8.110;2023-08-01T12:49:13;1.95;;;1.60;;
7471;SDS011;3777;48.722;8.110;2023-08-01T12:51:41;4.97;;;1.73;;
7471;SDS011;3777;48.722;8.110;2023-08-01T12:54:07;1.75;;;1.60;;
7471;SDS011;3777;48.722;8.110;2023-08-01T12:56:34;4.25;;;1.83;;
7471;SDS011;3777;48.722;8.110;2023-08-01T12:59:03;2.17;;;1.70;;
7471;SDS011;3777;48.722;8.110;2023-08-01T13:01:30;5.63;;;1.80;;
7471;SDS011;3777;48.722;8.110;2023-08-01T13:03:57;4.75;;;1.75;;
7471;SDS011;3777;48.722;8.110;2023-08-01T13:06:24;2.08;;;1.55;;
7471;SDS011;3777;48.722;8.110;2023-08-01T13:08:51;3.30;;;1.70;;
7471;SDS011;3777;48.722;8.110;2023-08-01T13:11:18;2.75;;;1.70;;
7471;SDS011;3777;48.722;8.110;2023-08-01T13:13:45;3.42;;;1.77;;
7471;SDS011;3777;48.722;8.110;2023-08-01T13:16:13;2.45;;;1.67;;
7471;SDS011;3777;48.722;8.110;2023-08-01T13:18:40;3.45;;;1.90;;
7471;SDS011;3777;48.722;8.110;2023-08-01T13:21:09;3.22;;;1.60;;
7471;SDS011;3777;48.722;8.110;2023-08-01T13:23:37;2.50;;;1.67;;
7471;SDS011;3777;48.722;8.110;2023-08-01T13:26:04;2.13;;;1.70;;
7471;SDS011;3777;48.722;8.110;2023-08-01T13:28:31;3.72;;;1.90;;
7471;SDS011;3777;48.722;8.110;2023-08-01T13:30:57;3.47;;;1.70;;
7471;SDS011;3777;48.722;8.110;2023-08-01T13:33:26;1.90;;;1.50;;
7471;SDS011;3777;48.722;8.110;2023-08-01T13:35:53;2.85;;;1.58;;
7471;SDS011;3777;48.722;8.110;2023-08-01T13:38:20;2.60;;;2.00;;
7471;SDS011;3777;48.722;8.110;2023-08-01T13:40:47;3.75;;;1.73;;
7471;SDS011;3777;48.722;8.110;2023-08-01T13:43:15;2.90;;;1.80;;
7471;SDS011;3777;48.722;8.110;2023-08-01T13:45:42;2.28;;;1.70;;
7471;SDS011;3777;48.722;8.110;2023-08-01T13:48:09;4.25;;;1.70;;
7471;SDS011;3777;48.722;8.110;2023-08-01T13:50:37;2.75;;;1.75;;
7471;SDS011;3777;48.722;8.110;2023-08-01T13:53:04;2.33;;;1.83;;
7471;SDS011;3777;48.722;8.110;2023-08-01T13:55:35;2.40;;;1.70;;
7471;SDS011;3777;48.722;8.110;2023-08-01T13:58:02;2.05;;;1.60;;
7471;SDS011;3777;48.722;8.110;2023-08-01T14:00:29;2.38;;;1.50;;
7471;SDS011;3777;48.722;8.110;2023-08-01T14:02:57;1.67;;;1.30;;
7471;SDS011;3777;48.722;8.110;2023-08-01T14:05:24;2.28;;;1.48;;
7471;SDS011;3777;48.722;8.110;2023-08-01T14:07:53;2.85;;;1.45;;
7471;SDS011;3777;48.722;8.110;2023-08-01T14:10:21;1.65;;;1.45;;
7471;SDS011;3777;48.722;8.110;2023-08-01T14:12:48;2.95;;;1.40;;
7471;SDS011;3777;48.722;8.110;2023-08-01T14:15:15;2.33;;;1.58;;
7471;SDS011;3777;48.722;8.110;2023-08-01T14:17:42;1.85;;;1.33;;
7471;SDS011;3777;48.722;8.110;2023-08-01T14:20:09;1.60;;;1.48;;
7471;SDS011;3777;48.722;8.110;2023-08-01T14:22:37;3.10;;;1.90;;
7471;SDS011;3777;48.722;8.110;2023-08-01T14:25:06;2.28;;;1.60;;
7471;SDS011;3777;48.722;8.110;2023-08-01T14:27:34;3.70;;;1.60;;
7471;SDS011;3777;48.722;8.110;2023-08-01T14:30:01;3.00;;;1.52;;
7471;SDS011;3777;48.722;8.110;2023-08-01T14:32:28;2.97;;;1.77;;
7471;SDS011;3777;48.722;8.110;2023-08-01T14:34:55;1.92;;;1.70;;
7471;SDS011;3777;48.722;8.110;2023-08-01T14:37:22;2.22;;;1.63;;
7471;SDS011;3777;48.722;8.110;2023-08-01T14:39:51;4.22;;;1.80;;
7471;SDS011;3777;48.722;8.110;2023-08-01T14:42:19;2.55;;;1.80;;
7471;SDS011;3777;48.722;8.110;2023-08-01T14:44:50;1.92;;;1.60;;
7471;SDS011;3777;48.722;8.110;2023-08-01T14:47:18;2.75;;;1.70;;
7471;SDS011;3777;48.722;8.110;2023-08-01T14:49:46;2.97;;;1.67;;
7471;SDS011;3777;48.722;8.110;2023-08-01T14:52:13;3.22;;;1.60;;
7471;SDS011;3777;48.722;8.110;2023-08-01T14:54:39;2.85;;;1.55;;
7471;SDS011;3777;48.722;8.110;2023-08-01T14:57:07;2.88;;;1.65;;
7471;SDS011;3777;48.722;8.110;2023-08-01T14:59:35;2.42;;;1.60;;
7471;SDS011;3777;48.722;8.110;2023-08-01T15:02:02;1.70;;;1.55;;
7471;SDS011;3777;48.722;8.110;2023-08-01T15:04:29;2.50;;;1.63;;
7471;SDS011;3777;48.722;8.110;2023-08-01T15:06:56;2.33;;;1.55;;
7471;SDS011;3777;48.722;8.110;2023-08-01T15:09:23;2.03;;;1.60;;
7471;SDS011;3777;48.722;8.110;2023-08-01T15:11:50;2.60;;;1.60;;
7471;SDS011;3777;48.722;8.110;2023-08-01T15:14:17;2.20;;;1.55;;
7471;SDS011;3777;48.722;8.110;2023-08-01T15:16:45;1.92;;;1.70;;
7471;SDS011;3777;48.722;8.110;2023-08-01T15:19:12;1.90;;;1.60;;